Time;durP1;ratioP1;P1;durP2;ratioP2;P2;SDS_P1;SDS_P2;PMS_P1;PMS_P2;Temp;Humidity;BMP_temperature;BMP_pressure;BME280_temperature;BME280_humidity;BME280_pressure;Samples;Min_cycle;Max_cycle;Signal;HPM_P1;HPM_P2
2021/10/06 00:00:50;;;;;;;;;;;;;;;;;;5049581;28;19925;-61
2021/10/06 00:03:17;;;;;;;;;;;;;;;;;;5048933;28;20396;-61
2021/10/06 00:05:43;;;;;;;;;;;;;;;;;;5045015;28;20035;-61
2021/10/06 00:08:11;;;;;;;;;;;;;;;;;;5048578;28;19932;-61
2021/10/06 00:10:37;;;;;;;;;;;;;;;;;;5050370;28;20019;-61
2021/10/06 00:13:04;;;;;;;;;;;;;;;;;;5049315;28;19933;-61
2021/10/06 00:15:31;;;;;;;;;;;;;;;;;;5049845;28;20388;-62
2021/10/06 00:17:58;;;;;;;;;;;;;;;;;;5046711;28;19925;-61
2021/10/06 00:20:25;;;;;;;;;;;;;;;;;;5046589;28;19972;-61
2021/10/06 00:22:52;;;;;;;;;;;;;;;;;;5050234;28;19931;-61
2021/10/06 00:25:19;;;;;;;;;;;;;;;;;;5045080;28;19932;-62
2021/10/06 00:27:48;;;;;;;;;;;;;;;;;;5049433;28;19936;-62
2021/10/06 00:30:15;;;;;;;;;;;;;;;;;;5051043;28;19925;-62
2021/10/06 00:32:42;;;;;;;;;;;;;;;;;;5049304;28;19932;-62
2021/10/06 00:35:09;;;;;;;;;;;;;;;;;;5047788;28;20270;-63
2021/10/06 00:37:36;;;;;;;;;;;;;;;;;;5048638;28;19929;-63
2021/10/06 00:40:03;;;;;;;;;;;;;;;;;;5048667;28;20007;-63
2021/10/06 00:42:30;;;;;;;;;;;;;;;;;;5049809;28;19924;-63
2021/10/06 00:44:57;;;;;;;;;;;;;;;;;;5048485;28;19925;-62
2021/10/06 00:47:24;;;;;;;;;;;;;;;;;;5050467;28;19924;-63
2021/10/06 00:49:51;;;;;;;;;;;;;;;;;;5048732;28;19925;-62
2021/10/06 00:52:18;;;;;;;;;;;;;;;;;;5044443;28;20308;-62
2021/10/06 00:54:45;;;;;;;;;;;;;;;;;;5048639;28;20450;-62
2021/10/06 00:57:12;;;;;;;;;;;;;;;;;;5050334;28;19924;-62
2021/10/06 00:59:38;;;;;;;;;;;;;;;;;;5048868;28;19931;-63
2021/10/06 01:02:05;;;;;;;;;;;;;;;;;;5049251;28;19924;-62
2021/10/06 01:04:32;;;;;;;;;;;;;;;;;;5045702;28;19931;-62
2021/10/06 01:06:59;;;;;;;;;;;;;;;;;;5048203;28;19939;-62
2021/10/06 01:09:26;;;;;;;;;;;;;;;;;;5050343;28;20442;-63
2021/10/06 01:11:53;;;;;;;;;;;;;;;;;;5046248;28;19925;-63
2021/10/06 01:14:20;;;;;;;;;;;;;;;;;;5046684;28;19948;-62
2021/10/06 01:16:47;;;;;;;;;;;;;;;;;;5049427;28;19929;-62
2021/10/06 01:19:14;;;;;;;;;;;;;;;;;;5046675;28;19932;-63
2021/10/06 01:21:41;;;;;;;;;;;;;;;;;;5044969;28;20299;-63
2021/10/06 01:24:08;;;;;;;;;;;;;;;;;;5045438;28;19932;-62
2021/10/06 01:26:34;;;;;;;;;;;;;;;;;;5048583;28;19925;-62
2021/10/06 01:29:01;;;;;;;;;;;;;;;;;;5047493;28;20399;-62
2021/10/06 01:31:28;;;;;;;;;;;;;;;;;;5048206;28;19925;-63
2021/10/06 01:33:55;;;;;;;;;;;;;;;;;;5047834;28;19925;-63
2021/10/06 01:36:22;;;;;;;;;;;;;;;;;;5049652;28;19925;-63
2021/10/06 01:38:49;;;;;;;;;;;;;;;;;;5052733;28;19931;-63
2021/10/06 01:41:16;;;;;;;;;;;;;;;;;;5048945;28;19925;-63
2021/10/06 01:43:43;;;;;;;;;;;;;;;;;;5049477;28;19925;-63
2021/10/06 01:46:10;;;;;;;;;;;;;;;;;;5050456;28;19925;-62
2021/10/06 01:48:37;;;;;;;;;;;;;;;;;;5051696;28;19929;-62
2021/10/06 01:51:04;;;;;;;;;;;;;;;;;;5049441;28;19929;-61
2021/10/06 01:53:31;;;;;;;;;;;;;;;;;;5050286;28;20016;-62
2021/10/06 01:55:57;;;;;;;;;;;;;;;;;;5051654;28;19935;-64
2021/10/06 01:58:24;;;;;;;;;;;;;;;;;;5051674;28;19929;-61
2021/10/06 02:00:51;;;;;;;;;;;;;;;;;;5052241;28;19931;-61
2021/10/06 02:03:18;;;;;;;;;;;;;;;;;;5052950;28;19925;-61
2021/10/06 02:05:45;;;;;;;;;;;;;;;;;;5050829;28;19925;-61
2021/10/06 02:08:14;;;;;;;;;;;;;;;;;;5052742;28;19931;-61
2021/10/06 02:10:41;;;;;;;;;;;;;;;;;;5052512;28;19929;-62
2021/10/06 02:13:08;;;;;;;;;;;;;;;;;;5048339;28;19925;-62
2021/10/06 02:15:35;;;;;;;;;;;;;;;;;;5048660;28;20293;-62
2021/10/06 02:18:02;;;;;;;;;;;;;;;;;;5048312;28;19925;-62
2021/10/06 02:20:29;;;;;;;;;;;;;;;;;;5051704;28;19925;-62
2021/10/06 02:22:55;;;;;;;;;;;;;;;;;;5046654;28;20312;-63
2021/10/06 02:25:22;;;;;;;;;;;;;;;;;;5051173;28;19933;-62
2021/10/06 02:27:49;;;;;;;;;;;;;;;;;;5047650;28;19928;-62
2021/10/06 02:30:16;;;;;;;;;;;;;;;;;;5048919;28;19925;-62
2021/10/06 02:32:43;;;;;;;;;;;;;;;;;;5048327;28;19925;-62
2021/10/06 02:35:10;;;;;;;;;;;;;;;;;;5050946;28;19924;-63
2021/10/06 02:37:37;;;;;;;;;;;;;;;;;;5046228;28;19939;-63
2021/10/06 02:40:04;;;;;;;;;;;;;;;;;;5048720;28;19929;-62
2021/10/06 02:42:31;;;;;;;;;;;;;;;;;;5049423;28;19931;-62
2021/10/06 02:44:58;;;;;;;;;;;;;;;;;;5052176;28;19932;-61
2021/10/06 02:47:25;;;;;;;;;;;;;;;;;;5047421;28;20280;-61
2021/10/06 02:49:52;;;;;;;;;;;;;;;;;;5050525;28;19931;-62
2021/10/06 02:52:19;;;;;;;;;;;;;;;;;;5050032;28;19925;-62
2021/10/06 02:54:45;;;;;;;;;;;;;;;;;;5051255;28;20292;-62
2021/10/06 02:57:12;;;;;;;;;;;;;;;;;;5043093;28;19925;-62
2021/10/06 02:59:39;;;;;;;;;;;;;;;;;;5046729;28;19925;-62
2021/10/06 03:02:06;;;;;;;;;;;;;;;;;;5047452;28;20493;-62
2021/10/06 03:04:33;;;;;;;;;;;;;;;;;;5051373;28;19925;-62
2021/10/06 03:07:00;;;;;;;;;;;;;;;;;;5050519;28;19925;-63
2021/10/06 03:09:27;;;;;;;;;;;;;;;;;;5051871;28;20300;-61
2021/10/06 03:11:54;;;;;;;;;;;;;;;;;;5050135;28;20033;-62
2021/10/06 03:14:21;;;;;;;;;;;;;;;;;;5045575;28;20385;-63
2021/10/06 03:16:48;;;;;;;;;;;;;;;;;;5045337;28;19928;-62
2021/10/06 03:19:15;;;;;;;;;;;;;;;;;;5051374;28;19931;-64
2021/10/06 03:21:42;;;;;;;;;;;;;;;;;;5048198;28;20282;-63
2021/10/06 03:24:08;;;;;;;;;;;;;;;;;;5047994;28;19940;-63
2021/10/06 03:26:35;;;;;;;;;;;;;;;;;;5048244;28;19925;-63
2021/10/06 03:29:02;;;;;;;;;;;;;;;;;;5051808;28;19931;-63
2021/10/06 03:31:29;;;;;;;;;;;;;;;;;;5050537;28;20372;-63
2021/10/06 03:33:57;;;;;;;;;;;;;;;;;;5047493;28;19926;-62
2021/10/06 03:36:24;;;;;;;;;;;;;;;;;;5046255;28;19960;-60
2021/10/06 03:38:50;;;;;;;;;;;;;;;;;;5047470;28;19931;-61
2021/10/06 03:41:17;;;;;;;;;;;;;;;;;;5049446;28;20392;-62
2021/10/06 03:43:44;;;;;;;;;;;;;;;;;;5069296;22;20406;-66
2021/10/06 03:46:11;;;;;;;;;;;;;;;;;;5048045;28;19933;-66
2021/10/06 03:48:38;;;;;;;;;;;;;;;;;;5055026;28;20020;-66
2021/10/06 03:51:05;;;;;;;;;;;;;;;;;;5053225;28;19924;-66
2021/10/06 03:53:32;;;;;;;;;;;;;;;;;;5052347;28;20402;-66
2021/10/06 03:55:59;;;;;;;;;;;;;;;;;;5046815;28;19925;-66
2021/10/06 03:58:26;;;;;;;;;;;;;;;;;;5044970;28;20015;-66
2021/10/06 04:00:53;;;;;;;;;;;;;;;;;;5048927;28;19928;-66
2021/10/06 04:03:21;;;;;;;;;;;;;;;;;;5047428;28;19932;-66
2021/10/06 04:05:48;;;;;;;;;;;;;;;;;;5044386;28;19929;-65
2021/10/06 04:08:17;;;;;;;;;;;;;;;;;;5053419;28;19933;-65
2021/10/06 04:10:44;;;;;;;;;;;;;;;;;;5048336;28;19925;-65
2021/10/06 04:13:11;;;;;;;;;;;;;;;;;;5050184;28;19939;-65
2021/10/06 04:15:38;;;;;;;;;;;;;;;;;;5048598;28;19925;-67
2021/10/06 04:18:06;;;;;;;;;;;;;;;;;;5047033;28;19924;-66
2021/10/06 04:20:33;;;;;;;;;;;;;;;;;;5048517;28;19964;-66
2021/10/06 04:22:59;;;;;;;;;;;;;;;;;;5040875;28;19925;-66
2021/10/06 04:25:26;;;;;;;;;;;;;;;;;;5044722;28;19925;-65
2021/10/06 04:27:53;;;;;;;;;;;;;;;;;;5047147;28;20300;-66
2021/10/06 04:30:20;;;;;;;;;;;;;;;;;;5042023;28;19929;-66
2021/10/06 04:32:47;;;;;;;;;;;;;;;;;;5046725;28;19929;-65
2021/10/06 04:35:14;;;;;;;;;;;;;;;;;;5047326;28;19925;-67
2021/10/06 04:37:41;;;;;;;;;;;;;;;;;;5047738;28;19929;-67
2021/10/06 04:40:08;;;;;;;;;;;;;;;;;;5046299;28;19932;-66
2021/10/06 04:42:35;;;;;;;;;;;;;;;;;;5049089;28;19961;-66
2021/10/06 04:45:03;;;;;;;;;;;;;;;;;;5042322;28;20098;-66
2021/10/06 04:47:30;;;;;;;;;;;;;;;;;;5046890;28;20269;-66
2021/10/06 04:49:57;;;;;;;;;;;;;;;;;;5050570;28;19933;-66
2021/10/06 04:52:24;;;;;;;;;;;;;;;;;;5049473;28;19931;-66
2021/10/06 04:54:52;;;;;;;;;;;;;;;;;;5046037;28;19929;-65
2021/10/06 04:57:19;;;;;;;;;;;;;;;;;;5048629;28;19972;-66
2021/10/06 04:59:46;;;;;;;;;;;;;;;;;;5046590;28;19924;-66
2021/10/06 05:02:13;;;;;;;;;;;;;;;;;;5041494;28;20289;-65
2021/10/06 05:04:40;;;;;;;;;;;;;;;;;;5051728;28;19935;-66
2021/10/06 05:07:07;;;;;;;;;;;;;;;;;;5055410;28;19929;-66
2021/10/06 05:09:34;;;;;;;;;;;;;;;;;;5048953;28;19924;-66
2021/10/06 05:12:01;;;;;;;;;;;;;;;;;;5056567;28;19929;-65
2021/10/06 05:14:28;;;;;;;;;;;;;;;;;;5051271;28;20392;-65
2021/10/06 05:16:55;;;;;;;;;;;;;;;;;;5051130;28;19924;-65
2021/10/06 05:19:22;;;;;;;;;;;;;;;;;;5053918;28;19925;-66
2021/10/06 05:21:49;;;;;;;;;;;;;;;;;;5052917;28;19925;-65
2021/10/06 05:24:16;;;;;;;;;;;;;;;;;;5052578;28;20021;-66
2021/10/06 05:26:43;;;;;;;;;;;;;;;;;;5050514;28;19924;-66
2021/10/06 05:29:10;;;;;;;;;;;;;;;;;;5052015;28;19925;-66
2021/10/06 05:31:37;;;;;;;;;;;;;;;;;;5057716;28;19933;-66
2021/10/06 05:34:04;;;;;;;;;;;;;;;;;;5054084;28;19924;-65
2021/10/06 05:36:31;;;;;;;;;;;;;;;;;;5054922;28;20451;-65
2021/10/06 05:38:58;;;;;;;;;;;;;;;;;;5057098;28;19931;-65
2021/10/06 05:41:24;;;;;;;;;;;;;;;;;;5054906;28;19924;-66
2021/10/06 05:43:51;;;;;;;;;;;;;;;;;;5049511;28;19935;-65
2021/10/06 05:46:19;;;;;;;;;;;;;;;;;;5055191;28;19931;-65
2021/10/06 05:48:46;;;;;;;;;;;;;;;;;;5051531;28;19929;-66
2021/10/06 05:51:13;;;;;;;;;;;;;;;;;;5051157;28;19932;-66
2021/10/06 05:53:39;;;;;;;;;;;;;;;;;;5054974;28;19924;-65
2021/10/06 05:56:06;;;;;;;;;;;;;;;;;;5055132;28;19929;-65
2021/10/06 05:58:33;;;;;;;;;;;;;;;;;;5055207;28;19944;-66
2021/10/06 06:01:00;;;;;;;;;;;;;;;;;;5045437;28;19940;-65
2021/10/06 06:03:27;;;;;;;;;;;;;;;;;;5050616;28;20293;-66
2021/10/06 06:05:54;;;;;;;;;;;;;;;;;;5049007;28;19928;-66
2021/10/06 06:08:21;;;;;;;;;;;;;;;;;;5049751;28;19929;-65
2021/10/06 06:10:48;;;;;;;;;;;;;;;;;;5052056;28;20384;-65
2021/10/06 06:13:15;;;;;;;;;;;;;;;;;;5051356;28;19925;-65
2021/10/06 06:15:42;;;;;;;;;;;;;;;;;;5049255;28;19928;-66
2021/10/06 06:18:09;;;;;;;;;;;;;;;;;;5052367;28;19924;-65
2021/10/06 06:20:35;;;;;;;;;;;;;;;;;;5050136;28;19924;-66
2021/10/06 06:23:03;;;;;;;;;;;;;;;;;;5050855;28;19925;-65
2021/10/06 06:25:30;;;;;;;;;;;;;;;;;;5047848;28;19957;-65
2021/10/06 06:27:57;;;;;;;;;;;;;;;;;;5049301;28;20979;-65
2021/10/06 06:30:24;;;;;;;;;;;;;;;;;;5053430;28;20005;-65
2021/10/06 06:32:51;;;;;;;;;;;;;;;;;;5053675;28;19932;-66
2021/10/06 06:35:18;;;;;;;;;;;;;;;;;;5051424;28;19925;-66
2021/10/06 06:37:45;;;;;;;;;;;;;;;;;;5052813;28;19925;-65
2021/10/06 06:40:12;;;;;;;;;;;;;;;;;;5049324;28;20388;-65
2021/10/06 06:42:39;;;;;;;;;;;;;;;;;;5049864;28;19925;-66
2021/10/06 06:45:06;;;;;;;;;;;;;;;;;;5047493;28;19929;-66
2021/10/06 06:47:33;;;;;;;;;;;;;;;;;;5051246;28;19933;-66
2021/10/06 06:50:00;;;;;;;;;;;;;;;;;;5041127;28;20278;-66
2021/10/06 06:52:27;;;;;;;;;;;;;;;;;;5037915;28;20315;-66
2021/10/06 06:54:54;;;;;;;;;;;;;;;;;;5043078;28;19965;-65
2021/10/06 06:57:20;;;;;;;;;;;;;;;;;;5047401;28;19929;-65
2021/10/06 06:59:47;;;;;;;;;;;;;;;;;;5034147;28;20393;-66
2021/10/06 07:02:14;;;;;;;;;;;;;;;;;;5042886;28;20307;-65
2021/10/06 07:04:41;;;;;;;;;;;;;;;;;;5048070;28;19929;-65
2021/10/06 07:07:12;;;;;;;;;;;;;;;;;;5047500;28;19924;-65
2021/10/06 07:09:46;;;;;;;;;;;;;;;;;;5048039;28;20017;-65
2021/10/06 07:12:13;;;;;;;;;;;;;;;;;;5049009;28;20023;-66
2021/10/06 07:14:40;;;;;;;;;;;;;;;;;;5043969;28;19932;-66
2021/10/06 07:17:07;;;;;;;;;;;;;;;;;;5047092;28;20359;-65
2021/10/06 07:19:34;;;;;;;;;;;;;;;;;;5048631;28;19925;-64
2021/10/06 07:22:01;;;;;;;;;;;;;;;;;;5040333;28;19940;-65
2021/10/06 07:24:28;;;;;;;;;;;;;;;;;;5050768;28;19925;-66
2021/10/06 07:26:55;;;;;;;;;;;;;;;;;;5050140;28;19932;-66
2021/10/06 07:29:22;;;;;;;;;;;;;;;;;;5050772;28;19933;-66
2021/10/06 07:31:49;;;;;;;;;;;;;;;;;;5047208;28;19950;-66
2021/10/06 07:34:15;;;;;;;;;;;;;;;;;;5048734;28;20397;-65
2021/10/06 07:36:42;;;;;;;;;;;;;;;;;;5049766;28;19932;-66
2021/10/06 07:39:09;;;;;;;;;;;;;;;;;;5051521;28;19925;-66
2021/10/06 07:41:36;;;;;;;;;;;;;;;;;;5045415;28;19929;-66
2021/10/06 07:44:03;;;;;;;;;;;;;;;;;;5047331;28;19932;-66
2021/10/06 07:46:30;;;;;;;;;;;;;;;;;;5049154;28;19932;-66
2021/10/06 07:48:57;;;;;;;;;;;;;;;;;;5052104;28;19924;-66
2021/10/06 07:51:24;;;;;;;;;;;;;;;;;;5042587;28;19940;-66
2021/10/06 07:53:51;;;;;;;;;;;;;;;;;;5044309;28;19932;-66
2021/10/06 07:56:18;;;;;;;;;;;;;;;;;;5049952;28;20305;-65
2021/10/06 07:58:45;;;;;;;;;;;;;;;;;;5048637;28;19928;-66
2021/10/06 08:01:12;;;;;;;;;;;;;;;;;;5033983;28;20587;-66
2021/10/06 08:03:39;;;;;;;;;;;;;;;;;;5048458;28;19929;-66
2021/10/06 08:06:05;;;;;;;;;;;;;;;;;;5050092;28;19940;-66
2021/10/06 08:08:32;;;;;;;;;;;;;;;;;;5049853;28;20319;-65
2021/10/06 08:10:59;;;;;;;;;;;;;;;;;;5045899;28;19931;-65
2021/10/06 08:13:26;;;;;;;;;;;;;;;;;;5047370;28;20285;-65
2021/10/06 08:15:53;;;;;;;;;;;;;;;;;;5046849;28;20007;-65
2021/10/06 08:18:20;;;;;;;;;;;;;;;;;;5046674;28;19925;-65
2021/10/06 08:20:47;;;;;;;;;;;;;;;;;;5047686;28;19924;-65
2021/10/06 08:23:16;;;;;;;;;;;;;;;;;;5045856;28;20380;-65
2021/10/06 08:25:42;;;;;;;;;;;;;;;;;;5048948;28;20019;-65
2021/10/06 08:28:09;;;;;;;;;;;;;;;;;;5048754;28;19931;-66
2021/10/06 08:30:36;;;;;;;;;;;;;;;;;;5049499;28;19925;-66
2021/10/06 08:33:03;;;;;;;;;;;;;;;;;;5046858;28;19931;-66
2021/10/06 08:35:30;;;;;;;;;;;;;;;;;;5047926;28;19925;-65
2021/10/06 08:37:57;;;;;;;;;;;;;;;;;;5049390;28;19925;-66
2021/10/06 08:40:24;;;;;;;;;;;;;;;;;;5048069;28;20015;-66
2021/10/06 08:42:51;;;;;;;;;;;;;;;;;;5048879;28;19932;-67
2021/10/06 08:45:18;;;;;;;;;;;;;;;;;;5049581;28;19924;-66
2021/10/06 08:47:45;;;;;;;;;;;;;;;;;;5052977;28;19931;-66
2021/10/06 08:50:12;;;;;;;;;;;;;;;;;;5052400;28;19928;-67
2021/10/06 08:52:39;;;;;;;;;;;;;;;;;;5051385;28;20289;-65
2021/10/06 08:55:06;;;;;;;;;;;;;;;;;;5048458;28;20198;-64
2021/10/06 08:57:33;;;;;;;;;;;;;;;;;;5050526;28;19925;-63
2021/10/06 09:00:00;;;;;;;;;;;;;;;;;;5049251;28;19947;-65
2021/10/06 09:02:27;;;;;;;;;;;;;;;;;;5043747;28;19931;-65
2021/10/06 09:04:54;;;;;;;;;;;;;;;;;;5053728;28;20448;-65
2021/10/06 09:07:21;;;;;;;;;;;;;;;;;;5047439;28;19932;-65
2021/10/06 09:09:48;;;;;;;;;;;;;;;;;;5051396;28;20296;-66
2021/10/06 09:12:15;;;;;;;;;;;;;;;;;;5048896;28;19932;-65
2021/10/06 09:14:42;;;;;;;;;;;;;;;;;;5051371;28;19937;-65
2021/10/06 09:17:09;;;;;;;;;;;;;;;;;;5047285;28;19929;-65
2021/10/06 09:19:36;;;;;;;;;;;;;;;;;;5048720;28;19925;-65
2021/10/06 09:22:03;;;;;;;;;;;;;;;;;;5051696;28;20436;-65
2021/10/06 09:24:30;;;;;;;;;;;;;;;;;;5046225;28;20323;-66
2021/10/06 09:26:57;;;;;;;;;;;;;;;;;;5051909;28;20364;-66
2021/10/06 09:29:24;;;;;;;;;;;;;;;;;;5053681;28;20392;-66
2021/10/06 09:31:51;;;;;;;;;;;;;;;;;;5051608;28;19931;-65
2021/10/06 09:34:18;;;;;;;;;;;;;;;;;;5044354;28;19925;-65
2021/10/06 09:36:45;;;;;;;;;;;;;;;;;;5046144;28;19932;-65
2021/10/06 09:39:12;;;;;;;;;;;;;;;;;;5049603;28;19935;-65
2021/10/06 09:41:39;;;;;;;;;;;;;;;;;;5052136;28;20371;-65
2021/10/06 09:44:06;;;;;;;;;;;;;;;;;;5065080;22;20391;-64
2021/10/06 09:46:33;;;;;;;;;;;;;;;;;;5050435;28;19924;-61
2021/10/06 09:49:00;;;;;;;;;;;;;;;;;;5051183;28;19925;-61
2021/10/06 09:51:27;;;;;;;;;;;;;;;;;;5051100;28;20183;-61
2021/10/06 09:53:54;;;;;;;;;;;;;;;;;;5048747;28;20396;-61
2021/10/06 09:56:21;;;;;;;;;;;;;;;;;;5047417;28;19928;-61
2021/10/06 09:58:48;;;;;;;;;;;;;;;;;;5044766;28;19925;-61
2021/10/06 10:01:15;;;;;;;;;;;;;;;;;;5047030;28;19925;-61
2021/10/06 10:03:42;;;;;;;;;;;;;;;;;;5039030;28;19932;-62
2021/10/06 10:06:09;;;;;;;;;;;;;;;;;;5047265;28;19924;-61
2021/10/06 10:08:36;;;;;;;;;;;;;;;;;;5046714;28;19925;-61
2021/10/06 10:11:03;;;;;;;;;;;;;;;;;;5049342;28;19928;-60
2021/10/06 10:13:30;;;;;;;;;;;;;;;;;;5046378;28;19925;-60
2021/10/06 10:15:56;;;;;;;;;;;;;;;;;;5047056;28;20282;-61
2021/10/06 10:18:23;;;;;;;;;;;;;;;;;;5051240;28;19940;-60
2021/10/06 10:20:50;;;;;;;;;;;;;;;;;;5048645;28;20337;-61
2021/10/06 10:23:18;;;;;;;;;;;;;;;;;;5048180;28;19925;-61
2021/10/06 10:25:45;;;;;;;;;;;;;;;;;;5052676;28;20332;-61
2021/10/06 10:28:12;;;;;;;;;;;;;;;;;;5051628;28;19935;-61
2021/10/06 10:30:39;;;;;;;;;;;;;;;;;;5048898;28;19944;-61
2021/10/06 10:33:06;;;;;;;;;;;;;;;;;;5045107;28;19933;-61
2021/10/06 10:35:33;;;;;;;;;;;;;;;;;;5049836;28;19982;-61
2021/10/06 10:38:00;;;;;;;;;;;;;;;;;;5045823;28;19929;-61
2021/10/06 10:40:27;;;;;;;;;;;;;;;;;;5046923;28;19940;-62
2021/10/06 10:42:54;;;;;;;;;;;;;;;;;;5046761;28;19932;-61
2021/10/06 10:45:21;;;;;;;;;;;;;;;;;;5046295;28;19932;-61
2021/10/06 10:47:48;;;;;;;;;;;;;;;;;;5048269;28;19925;-61
2021/10/06 10:50:15;;;;;;;;;;;;;;;;;;5044636;28;19925;-61
2021/10/06 10:52:42;;;;;;;;;;;;;;;;;;5042647;28;19933;-61
2021/10/06 10:55:09;;;;;;;;;;;;;;;;;;5044263;28;19931;-61
2021/10/06 10:57:36;;;;;;;;;;;;;;;;;;5048368;28;19925;-62
2021/10/06 11:00:02;;;;;;;;;;;;;;;;;;5047941;28;19928;-62
2021/10/06 11:02:29;;;;;;;;;;;;;;;;;;5043351;28;19932;-61
2021/10/06 11:04:57;;;;;;;;;;;;;;;;;;5040575;28;20302;-62
2021/10/06 11:07:24;;;;;;;;;;;;;;;;;;5045758;28;19936;-62
2021/10/06 11:09:50;;;;;;;;;;;;;;;;;;5048461;28;19940;-63
2021/10/06 11:12:18;;;;;;;;;;;;;;;;;;5048785;28;20025;-62
2021/10/06 11:14:45;;;;;;;;;;;;;;;;;;5050371;28;19924;-63
2021/10/06 11:17:14;;;;;;;;;;;;;;;;;;5050226;28;20617;-62
2021/10/06 11:19:41;;;;;;;;;;;;;;;;;;5047739;28;19975;-62
2021/10/06 11:22:07;;;;;;;;;;;;;;;;;;5047867;28;19931;-62
2021/10/06 11:24:34;;;;;;;;;;;;;;;;;;5045150;28;19925;-62
2021/10/06 11:27:02;;;;;;;;;;;;;;;;;;5039279;28;19925;-62
2021/10/06 11:29:29;;;;;;;;;;;;;;;;;;5046603;28;19929;-62
2021/10/06 11:31:56;;;;;;;;;;;;;;;;;;5044310;28;20236;-62
2021/10/06 11:34:23;;;;;;;;;;;;;;;;;;5047965;28;19951;-62
2021/10/06 11:36:50;;;;;;;;;;;;;;;;;;5044452;28;19955;-59
2021/10/06 11:39:17;;;;;;;;;;;;;;;;;;5048165;28;19925;-62
2021/10/06 11:41:44;;;;;;;;;;;;;;;;;;5045698;28;20384;-62
2021/10/06 11:44:11;;;;;;;;;;;;;;;;;;5047470;28;20430;-62
2021/10/06 11:46:38;;;;;;;;;;;;;;;;;;5049042;28;19925;-62
2021/10/06 11:49:05;;;;;;;;;;;;;;;;;;5049457;28;19935;-62
2021/10/06 11:51:32;;;;;;;;;;;;;;;;;;5046472;28;20282;-62
2021/10/06 11:53:59;;;;;;;;;;;;;;;;;;5044689;28;20312;-63
2021/10/06 11:56:26;;;;;;;;;;;;;;;;;;5044321;28;20320;-62
2021/10/06 11:58:53;;;;;;;;;;;;;;;;;;5040476;28;20423;-63
2021/10/06 12:01:20;;;;;;;;;;;;;;;;;;5042867;28;19936;-63
2021/10/06 12:03:47;;;;;;;;;;;;;;;;;;5043671;28;19925;-63
2021/10/06 12:06:14;;;;;;;;;;;;;;;;;;5041080;28;19929;-63
2021/10/06 12:08:40;;;;;;;;;;;;;;;;;;5045737;28;20300;-63
2021/10/06 12:11:07;;;;;;;;;;;;;;;;;;5047638;28;19932;-63
2021/10/06 12:13:35;;;;;;;;;;;;;;;;;;5046324;28;19925;-62
2021/10/06 12:16:02;;;;;;;;;;;;;;;;;;5046792;28;19925;-63
2021/10/06 12:18:29;;;;;;;;;;;;;;;;;;5042292;28;19933;-63
2021/10/06 12:20:56;;;;;;;;;;;;;;;;;;5041985;28;20316;-62
2021/10/06 12:23:23;;;;;;;;;;;;;;;;;;5045000;28;20311;-62
2021/10/06 12:25:50;;;;;;;;;;;;;;;;;;5041028;28;19925;-63
2021/10/06 12:28:19;;;;;;;;;;;;;;;;;;5045280;28;19925;-62
2021/10/06 12:30:45;;;;;;;;;;;;;;;;;;5042526;28;20009;-63
2021/10/06 12:33:13;;;;;;;;;;;;;;;;;;5045745;28;19925;-62
2021/10/06 12:35:40;;;;;;;;;;;;;;;;;;5046442;28;20426;-62
2021/10/06 12:38:07;;;;;;;;;;;;;;;;;;5047279;28;19924;-63
2021/10/06 12:40:34;;;;;;;;;;;;;;;;;;5042619;28;20019;-62
2021/10/06 12:43:01;;;;;;;;;;;;;;;;;;5044927;28;19929;-62
2021/10/06 12:45:31;;;;;;;;;;;;;;;;;;5043601;28;19933;-62
2021/10/06 12:47:58;;;;;;;;;;;;;;;;;;5048225;28;20427;-62
2021/10/06 12:50:25;;;;;;;;;;;;;;;;;;5043163;28;20011;-62
2021/10/06 12:52:52;;;;;;;;;;;;;;;;;;5046005;28;20376;-62
2021/10/06 12:55:19;;;;;;;;;;;;;;;;;;5044378;28;19936;-62
2021/10/06 12:57:46;;;;;;;;;;;;;;;;;;5043907;28;20012;-62
2021/10/06 13:00:13;;;;;;;;;;;;;;;;;;5043806;28;19935;-62
2021/10/06 13:02:40;;;;;;;;;;;;;;;;;;5043342;28;19935;-62
2021/10/06 13:05:07;;;;;;;;;;;;;;;;;;5041578;28;19935;-62
2021/10/06 13:07:34;;;;;;;;;;;;;;;;;;5037039;28;19931;-62
2021/10/06 13:10:01;;;;;;;;;;;;;;;;;;5045009;28;19931;-62
2021/10/06 13:12:28;;;;;;;;;;;;;;;;;;5042434;28;19935;-62
2021/10/06 13:14:55;;;;;;;;;;;;;;;;;;5041842;28;19932;-61
2021/10/06 13:17:22;;;;;;;;;;;;;;;;;;5044874;28;20389;-61
2021/10/06 13:19:48;;;;;;;;;;;;;;;;;;5043908;28;20011;-61
2021/10/06 13:22:15;;;;;;;;;;;;;;;;;;5042483;28;19932;-61
2021/10/06 13:24:42;;;;;;;;;;;;;;;;;;5047601;28;19929;-61
2021/10/06 13:27:10;;;;;;;;;;;;;;;;;;5047090;28;19925;-61
2021/10/06 13:29:37;;;;;;;;;;;;;;;;;;5039364;28;19932;-58
2021/10/06 13:32:07;;;;;;;;;;;;;;;;;;5045061;28;19929;-62
2021/10/06 13:34:34;;;;;;;;;;;;;;;;;;5044324;28;19975;-62
2021/10/06 13:37:01;;;;;;;;;;;;;;;;;;5049984;28;19929;-61
2021/10/06 13:39:28;;;;;;;;;;;;;;;;;;5046560;28;19925;-61
2021/10/06 13:41:55;;;;;;;;;;;;;;;;;;5047368;28;19931;-62
2021/10/06 13:44:22;;;;;;;;;;;;;;;;;;5049312;28;19925;-61
2021/10/06 13:46:49;;;;;;;;;;;;;;;;;;5052078;28;20018;-62
2021/10/06 13:49:16;;;;;;;;;;;;;;;;;;5046752;28;19924;-62
2021/10/06 13:51:43;;;;;;;;;;;;;;;;;;5051444;28;20297;-62
2021/10/06 13:54:10;;;;;;;;;;;;;;;;;;5049503;28;19924;-60
2021/10/06 13:56:37;;;;;;;;;;;;;;;;;;5048302;28;19932;-61
2021/10/06 13:59:04;;;;;;;;;;;;;;;;;;5050449;28;19968;-60
2021/10/06 14:01:31;;;;;;;;;;;;;;;;;;5043812;28;19992;-62
2021/10/06 14:03:58;;;;;;;;;;;;;;;;;;5047264;28;20377;-62
2021/10/06 14:06:25;;;;;;;;;;;;;;;;;;5039624;28;19933;-62
2021/10/06 14:08:52;;;;;;;;;;;;;;;;;;5045358;28;19932;-62
2021/10/06 14:11:19;;;;;;;;;;;;;;;;;;5041118;28;19928;-62
2021/10/06 14:13:46;;;;;;;;;;;;;;;;;;5042776;28;19924;-62
2021/10/06 14:16:13;;;;;;;;;;;;;;;;;;5047572;28;19928;-62
2021/10/06 14:18:40;;;;;;;;;;;;;;;;;;5048886;28;19924;-62
2021/10/06 14:21:09;;;;;;;;;;;;;;;;;;5047952;28;20311;-62
2021/10/06 14:23:36;;;;;;;;;;;;;;;;;;5043968;28;20034;-62
2021/10/06 14:26:03;;;;;;;;;;;;;;;;;;5048837;28;19935;-62
2021/10/06 14:28:30;;;;;;;;;;;;;;;;;;5046169;28;19951;-61
2021/10/06 14:30:59;;;;;;;;;;;;;;;;;;5048724;28;19932;-61
2021/10/06 14:33:26;;;;;;;;;;;;;;;;;;5047646;28;19925;-62
2021/10/06 14:35:53;;;;;;;;;;;;;;;;;;5051251;28;19963;-62
2021/10/06 14:38:20;;;;;;;;;;;;;;;;;;5049013;28;19925;-62
2021/10/06 14:40:47;;;;;;;;;;;;;;;;;;5052093;28;19929;-61
2021/10/06 14:43:13;;;;;;;;;;;;;;;;;;5043286;28;20011;-61
2021/10/06 14:45:40;;;;;;;;;;;;;;;;;;5048203;28;19951;-61
2021/10/06 14:48:07;;;;;;;;;;;;;;;;;;5049025;28;19935;-61
2021/10/06 14:50:34;;;;;;;;;;;;;;;;;;5047040;28;21559;-62
2021/10/06 14:53:01;;;;;;;;;;;;;;;;;;5042657;28;19929;-61
2021/10/06 14:55:28;;;;;;;;;;;;;;;;;;5045825;28;19933;-62
2021/10/06 14:57:55;;;;;;;;;;;;;;;;;;5049070;28;20019;-62
2021/10/06 15:00:22;;;;;;;;;;;;;;;;;;5047490;28;19925;-61
2021/10/06 15:02:52;;;;;;;;;;;;;;;;;;5043699;28;21749;-62
2021/10/06 15:05:19;;;;;;;;;;;;;;;;;;5050863;28;19931;-62
2021/10/06 15:07:46;;;;;;;;;;;;;;;;;;5034534;28;19925;-61
2021/10/06 15:10:13;;;;;;;;;;;;;;;;;;5043118;28;19947;-61
2021/10/06 15:12:40;;;;;;;;;;;;;;;;;;5039376;28;19931;-63
2021/10/06 15:15:07;;;;;;;;;;;;;;;;;;5046553;28;20298;-61
2021/10/06 15:17:34;;;;;;;;;;;;;;;;;;5044338;28;19924;-62
2021/10/06 15:20:01;;;;;;;;;;;;;;;;;;5047001;28;19928;-63
2021/10/06 15:22:28;;;;;;;;;;;;;;;;;;5041983;28;19948;-62
2021/10/06 15:24:55;;;;;;;;;;;;;;;;;;5043058;28;19931;-63
2021/10/06 15:27:22;;;;;;;;;;;;;;;;;;5046907;28;19925;-62
2021/10/06 15:29:49;;;;;;;;;;;;;;;;;;5048681;28;19925;-62
2021/10/06 15:32:16;;;;;;;;;;;;;;;;;;5046498;28;19925;-62
2021/10/06 15:34:43;;;;;;;;;;;;;;;;;;5045932;28;19928;-64
2021/10/06 15:37:10;;;;;;;;;;;;;;;;;;5046135;28;19964;-62
2021/10/06 15:39:37;;;;;;;;;;;;;;;;;;5042247;28;19925;-62
2021/10/06 15:42:04;;;;;;;;;;;;;;;;;;5046617;28;20452;-62
2021/10/06 15:44:31;;;;;;;;;;;;;;;;;;5066297;22;19925;-60
2021/10/06 15:46:58;;;;;;;;;;;;;;;;;;5046845;28;19940;-61
2021/10/06 15:49:25;;;;;;;;;;;;;;;;;;5047879;28;19939;-60
2021/10/06 15:51:52;;;;;;;;;;;;;;;;;;5046494;28;20019;-61
2021/10/06 15:54:19;;;;;;;;;;;;;;;;;;5049939;28;19925;-61
2021/10/06 15:56:46;;;;;;;;;;;;;;;;;;5045583;28;19925;-61
2021/10/06 15:59:13;;;;;;;;;;;;;;;;;;5046748;28;19928;-61
2021/10/06 16:01:40;;;;;;;;;;;;;;;;;;5041841;28;20031;-61
2021/10/06 16:04:07;;;;;;;;;;;;;;;;;;5047406;28;19935;-61
2021/10/06 16:06:34;;;;;;;;;;;;;;;;;;5046599;28;19925;-60
2021/10/06 16:09:01;;;;;;;;;;;;;;;;;;5038665;28;19957;-62
2021/10/06 16:11:28;;;;;;;;;;;;;;;;;;5045907;28;19925;-60
2021/10/06 16:13:54;;;;;;;;;;;;;;;;;;5047224;28;20412;-61
2021/10/06 16:16:22;;;;;;;;;;;;;;;;;;5046403;28;19925;-62
2021/10/06 16:18:49;;;;;;;;;;;;;;;;;;5045256;28;19935;-61
2021/10/06 16:21:16;;;;;;;;;;;;;;;;;;5042671;28;20529;-62
2021/10/06 16:23:43;;;;;;;;;;;;;;;;;;5043091;28;19932;-61
2021/10/06 16:26:09;;;;;;;;;;;;;;;;;;5046109;28;19935;-61
2021/10/06 16:28:36;;;;;;;;;;;;;;;;;;5046440;28;19936;-62
2021/10/06 16:31:06;;;;;;;;;;;;;;;;;;5045190;28;20415;-61
2021/10/06 16:33:33;;;;;;;;;;;;;;;;;;5043389;28;19933;-61
2021/10/06 16:36:00;;;;;;;;;;;;;;;;;;5043942;28;19925;-61
2021/10/06 16:38:27;;;;;;;;;;;;;;;;;;5044629;28;19947;-60
2021/10/06 16:40:54;;;;;;;;;;;;;;;;;;5041097;28;19931;-61
2021/10/06 16:43:21;;;;;;;;;;;;;;;;;;5045707;28;19939;-61